Ext San Antonio, Puerto Rico
Current Conditions -  °F | °C
As of 8:53 PM on Thursday 18 Dec 2014 (Local Time) from TJNR Reporting Station
Broken Clouds Broken Clouds  
Wind Chill: 79°   Ceiling: 8000
Heat Index: 81°   Visibility: 10mi
Dew Point: 68°   Wind: 6mph
Humidity: 69%   Direction: 70°ENE
Pressure: 30.02"   Gusts: NA
Location:  18.1494°N, 65.8294°W
Report Text: TJNR 190053Z AUTO 07005KT 10SM SCT034 BKN080 26/20 A3002 RMK AO2 SLP164 T02610200 $
Loading
Personal Weather Stations






























Interactive Weather Map New forecast layout! Learn more

10-Day Weather Forecast

Advertisements
Track Severe Weather on mobile